Flight Track Log - Related Links

Times and Time Zones

All times are in EDT time to prevent confusion due to time zone crossing. See the ASH3732 flight status page for this flight to view local times or setup timezone preferences in your user account.

Time Position Orientation Groundspeed Altitude Reporting Facility
EDT Latitude Longitude Course Direction KTS MPH feet Rate Location/Type
Sat 09:16:13 PM 41.9333 -87.9000 90° East 177 204 2,200  Level Chicago TRACON
Sat 09:17:19 PM 41.9333 -87.8167 90° East 217 250 4,800 2,089 Climbing Chicago TRACON
Sat 09:18:28 PM 41.9578 -87.7169 72° East 253 291 6,900 2,169 Climbing Chicago Center
Sat 09:19:00 PM 41.9442 -87.2739 96° East  Level FlightAware Approximate
Sat 09:19:29 PM 41.9736 -87.6133 78° East 285 328 9,500  Level Chicago Center
Sat 09:20:00 PM 41.9333 -87.1178 90° East  Level FlightAware Approximate
Sat 09:20:30 PM 41.9683 -87.5053 94° East 290 334 12,000  Level Chicago Center
Sat 09:21:00 PM 41.9333 -86.9610 90° East  Level FlightAware Approximate
Sat 09:21:32 PM 41.9594 -87.3853 96° East 316 364 13,800  Level Chicago Center
Sat 09:22:33 PM 41.9506 -87.2614 95° East 330 380 16,100 2,016 Climbing Chicago Center
Sat 09:23:34 PM 41.9386 -87.1100 96° East 338 389 17,900 1,918 Climbing Chicago Center
Sat 09:24:35 PM 41.9286 -86.9769 96° East 356 410 20,000 1,659 Climbing Chicago Center
Sat 09:25:37 PM 41.9164 -86.8414 97° East 362 417 21,300 1,122 Climbing Chicago Center
Sat 09:26:38 PM 41.9058 -86.7008 96° East 373 429 22,300 1,082 Climbing Chicago Center
Sat 09:27:39 PM 41.8925 -86.5483 97° East 399 459 23,500 1,082 Climbing Chicago Center
Sat 09:28:40 PM 41.8800 -86.3972 96° East 408 470 24,500 1,024 Climbing Chicago Center
Sat 09:29:42 PM 41.8669 -86.2408 96° East 418 481 25,600 1,220 Climbing Chicago Center
Sat 09:30:43 PM 41.8536 -86.0817 96° East 428 493 27,000 1,525 Climbing Chicago Center
Sat 09:31:44 PM 41.8408 -85.9292 96° East 415 478 28,700 1,230 Climbing Chicago Center
Sat 09:32:45 PM 41.8269 -85.7767 97° East 412 474 29,500 732 Climbing Chicago Center
Sat 09:33:47 PM 41.8133 -85.6203 97° East 421 484 30,200 634 Climbing Chicago Center
Sat 09:34:48 PM 41.8000 -85.4572 96° East 433 498 30,800 689 Climbing Chicago Center
Sat 09:35:49 PM 41.7844 -85.2894 97° East 447 514 31,600 885 Climbing Chicago Center
Sat 09:36:50 PM 41.7686 -85.1225 97° East 460 529 32,600 885 Climbing Chicago Center
Sat 09:37:51 PM 41.7517 -84.9586 98° East 453 521 33,400 829 Climbing Chicago Center
Sat 09:38:53 PM 41.7325 -84.7650 97° East 439 505 34,300 732 Climbing Chicago Center
Sat 09:39:54 PM 41.7158 -84.5983 98° East 448 516 34,900 462 Climbing Chicago Center
Sat 09:40:24 PM 41.7106 -84.5306 96° East 438 504 35,000 67 Climbing Cleveland Center
Sat 09:41:24 PM 41.6808 -84.3647 103° East 448 516 35,000  Level Cleveland Center
Sat 09:42:24 PM 41.5892 -84.2258 131° Southeast 431 496 35,000  Level Cleveland Center
Sat 09:42:57 PM 41.5367 -84.1889 152° Southeast 441 507 35,000  Level Chicago Center
Sat 09:43:58 PM 41.4233 -84.1444 164° South 424 488 35,000  Level Chicago Center
Sat 09:44:59 PM 41.3122 -84.1025 164° South 418 481 35,000  Level Chicago Center
Sat 09:46:01 PM 41.1997 -84.0589 164° South 420 483 35,000  Level Chicago Center
Sat 09:47:02 PM 41.0881 -84.0164 164° South 417 480 35,000  Level Chicago Center
Sat 09:47:36 PM 41.0200 -83.9922 165° South 417 480 35,000  Level Indianapolis Center
Sat 09:48:37 PM 40.9058 -83.9508 165° South 420 483 35,000  Level Indianapolis Center
Sat 09:49:38 PM 40.7922 -83.9081 164° South 421 484 35,000  Level Indianapolis Center
Sat 09:50:39 PM 40.6781 -83.8650 164° South 422 486 35,000  Level Indianapolis Center
Sat 09:51:40 PM 40.5644 -83.8239 165° South 421 484 35,000  Level Indianapolis Center
Sat 09:52:41 PM 40.4511 -83.7811 164° South 420 483 35,000  Level Indianapolis Center
Sat 09:53:42 PM 40.3383 -83.7386 164° South 420 483 35,000  Level Indianapolis Center
Sat 09:54:43 PM 40.2247 -83.6978 165° South 419 482 35,000  Level Indianapolis Center
Sat 09:55:44 PM 40.1111 -83.6558 164° South 419 482 35,000  Level Indianapolis Center
Sat 09:56:44 PM 39.9786 -83.6083 165° South 419 482 35,000  Level Indianapolis Center
Sat 09:57:45 PM 39.8797 -83.5725 164° South 428 493 35,000  Level Indianapolis Center
Sat 09:58:46 PM 39.7681 -83.5306 164° South 423 487 35,000  Level Indianapolis Center
Sat 09:59:47 PM 39.6397 -83.4850 165° South 425 489 35,000  Level Indianapolis Center
Sat 10:00:48 PM 39.5261 -83.4439 164° South 422 486 35,000  Level Indianapolis Center
Sat 10:01:49 PM 39.4106 -83.4025 165° South 427 491 35,000 295 Level Indianapolis Center
Sat 10:02:50 PM 39.2969 -83.3619 165° South 423 487 35,600 689 Climbing Indianapolis Center
Sat 10:03:51 PM 39.1872 -83.3222 164° South 409 471 36,400 689 Climbing Indianapolis Center
Sat 10:04:52 PM 39.0828 -83.2844 164° South 388 447 37,000 298 Climbing Indianapolis Center
Sat 10:05:52 PM 38.9775 -83.2461 164° South 390 449 37,000  Level Indianapolis Center
Sat 10:06:53 PM 38.8689 -83.2089 165° South 397 457 37,000  Level Indianapolis Center
Sat 10:07:54 PM 38.7578 -83.1700 165° South 408 470 37,000  Level Indianapolis Center
Sat 10:08:55 PM 38.6336 -83.1278 165° South 413 475 37,000  Level Indianapolis Center
Sat 10:09:56 PM 38.5217 -83.0872 164° South 415 478 37,000  Level Indianapolis Center
Sat 10:10:56 PM 38.4086 -83.0475 165° South 417 480 37,000  Level Indianapolis Center
Sat 10:11:57 PM 38.2956 -83.0081 165° South 418 481 37,000  Level Indianapolis Center
Sat 10:12:58 PM 38.1828 -82.9694 165° South 417 480 37,000  Level Indianapolis Center
Sat 10:13:58 PM 38.0717 -82.9325 165° South 413 475 37,000  Level Indianapolis Center
Sat 10:14:59 PM 37.9619 -82.8936 164° South 408 470 37,000  Level Indianapolis Center
Sat 10:16:00 PM 37.8508 -82.8569 165° South 411 473 37,000  Level Indianapolis Center
Sat 10:17:01 PM 37.7381 -82.8178 165° South 415 478 37,000  Level Indianapolis Center
Sat 10:18:01 PM 37.6258 -82.7792 165° South 416 479 37,000  Level Indianapolis Center
Sat 10:19:02 PM 37.5117 -82.7406 165° South 422 486 37,000  Level Indianapolis Center
Sat 10:20:03 PM 37.3961 -82.7017 165° South 426 490 37,000  Level Indianapolis Center
Sat 10:21:04 PM 37.2792 -82.6611 165° South 431 496 37,000  Level Indianapolis Center
Sat 10:22:04 PM 37.1617 -82.6214 165° South 433 498 37,000  Level Indianapolis Center
Sat 10:23:05 PM 37.0436 -82.5808 165° South 435 501 37,000  Level Indianapolis Center
Sat 10:24:06 PM 36.9247 -82.5414 165° South 435 501 37,000  Level Indianapolis Center
Sat 10:25:06 PM 36.8067 -82.5022 165° South 435 501 37,000  Level Indianapolis Center
Sat 10:26:07 PM 36.6883 -82.4636 165° South 434 499 37,000  Level Indianapolis Center
Sat 10:27:06 PM 36.5689 -82.4231 165° South 435 501 37,000  Level Atlanta Center
Sat 10:28:06 PM 36.4497 -82.3844 165° South 435 501 37,000  Level Atlanta Center
Sat 10:29:06 PM 36.3344 -82.3481 166° South 435 501 37,000  Level Atlanta Center
Sat 10:30:06 PM 36.2150 -82.3094 165° South 435 501 37,000  Level Atlanta Center
Sat 10:31:06 PM 36.0956 -82.2708 165° South 435 501 37,000  Level Atlanta Center
Sat 10:32:06 PM 35.9825 -82.2347 166° South 435 501 37,000  Level Atlanta Center
Sat 10:33:06 PM 35.8608 -82.1939 165° South 435 501 37,000  Level Atlanta Center
Sat 10:34:06 PM 35.7414 -82.1583 166° South 435 501 37,000  Level Atlanta Center
Sat 10:35:06 PM 35.6219 -82.1200 165° South 435 501 37,000  Level Atlanta Center
Sat 10:36:06 PM 35.5025 -82.0822 166° South 440 506 37,000  Level Atlanta Center
Sat 10:37:06 PM 35.3767 -82.0417 165° South 435 501 37,000  Level Atlanta Center
Sat 10:38:06 PM 35.2550 -82.0067 167° South 440 506 37,000  Level Atlanta Center
Sat 10:39:06 PM 35.1353 -81.9664 165° South 440 506 37,000  Level Atlanta Center
Sat 10:40:06 PM 35.0158 -81.9286 165° South 440 506 37,000  Level Atlanta Center
Sat 10:41:06 PM 34.8942 -81.8964 168° South 440 506 37,000  Level Atlanta Center
Sat 10:42:06 PM 34.7747 -81.8667 168° South 448 516 37,000  Level Atlanta Center
Sat 10:43:06 PM 34.6489 -81.8319 167° South 453 521 37,000  Level Atlanta Center
Sat 10:44:51 PM 34.4469 -81.7772 167° South 437 503 37,000  Level Jacksonville Center
Sat 10:45:51 PM 34.3236 -81.7436 167° South 451 519 37,000  Level Jacksonville Center
Sat 10:46:51 PM 34.1981 -81.7125 168° South 456 525 37,000  Level Jacksonville Center
Sat 10:47:51 PM 34.0725 -81.6792 168° South 456 525 37,000  Level Jacksonville Center
Sat 10:48:51 PM 33.9472 -81.6483 168° South 461 531 37,000  Level Jacksonville Center
Sat 10:49:51 PM 33.8258 -81.6150 167° South 461 531 37,000  Level Jacksonville Center
Sat 10:50:51 PM 33.7003 -81.5844 169° South 461 531 37,000 -500 Level Jacksonville Center
Sat 10:51:51 PM 33.5725 -81.5539 169° South 461 531 36,000 -1,000 Descending Jacksonville Center
Sat 10:52:51 PM 33.4450 -81.5211 168° South 466 536 35,000 -1,000 Descending Jacksonville Center
Sat 10:53:51 PM 33.3172 -81.4906 169° South 466 536 34,000 -500 Descending Jacksonville Center
Sat 10:54:51 PM 33.1753 -81.4781 176° South 466 536 34,000 -350 Level Jacksonville Center
Sat 10:55:51 PM 33.0436 -81.4750 179° South 466 536 33,300 -900 Descending Jacksonville Center
Sat 10:56:51 PM 32.9081 -81.4722 179° South 480 552 32,200 -1,050 Descending Jacksonville Center
Sat 10:57:51 PM 32.7767 -81.4744 181° South 480 552 31,200 -950 Descending Jacksonville Center
Sat 10:58:51 PM 32.6597 -81.4736 180° South 475 547 30,300 -1,000 Descending Jacksonville Center
Sat 10:59:51 PM 32.5156 -81.4711 179° South 475 547 29,200 -1,000 Descending Jacksonville Center
Sat 11:00:51 PM 32.3839 -81.4683 179° South 475 547 28,300 -900 Descending Jacksonville Center
Sat 11:01:51 PM 32.2733 -81.4650 179° South 462 532 27,400 -1,450 Descending Jacksonville Center
Sat 11:02:51 PM 32.1375 -81.4647 180° South 457 526 25,400 -1,950 Descending Jacksonville Center
Sat 11:03:51 PM 32.0247 -81.4617 179° South 450 518 23,500 -2,050 Descending Jacksonville Center
Sat 11:04:51 PM 31.8892 -81.4589 179° South 444 511 21,300 -2,050 Descending Jacksonville Center
Sat 11:05:51 PM 31.7764 -81.4556 179° South 428 493 19,400 -1,800 Descending Jacksonville Center
Sat 11:06:51 PM 31.6739 -81.4547 180° South 412 474 17,700 -1,950 Descending Jacksonville Center
Sat 11:07:51 PM 31.5550 -81.4542 180° South 397 457 15,500 -2,000 Descending Jacksonville Center
Sat 11:08:51 PM 31.4589 -81.4508 178° South 382 440 13,700 -1,450 Descending Jacksonville Center
Sat 11:09:51 PM 31.3608 -81.4475 178° South 373 429 12,600 -1,150 Descending Jacksonville Center
Sat 11:10:51 PM 31.2628 -81.4514 182° South 363 418 11,400 -1,100 Descending Jacksonville Center
Sat 11:11:51 PM 31.1686 -81.4528 181° South 351 404 10,400 -700 Descending Jacksonville Center
Sat 11:12:51 PM 31.0747 -81.4494 178° South 339 390 10,000 -200 Descending Jacksonville Center
Sat 11:13:51 PM 30.9956 -81.4650 190° South 316 364 10,000  Level Jacksonville Center
Sat 11:14:21 PM 30.9519 -81.4925 208° Southwest 278 320 10,000  Level Jacksonville Center
Sat 11:14:51 PM 30.9292 -81.5144 220° Southwest 291 335 10,000 -492 Level Jacksonville Center
Sat 11:15:22 PM 30.8858 -81.5394 206° Southwest 276 318 9,500 -1,319 Descending Jacksonville Center
Sat 11:16:22 PM 30.8194 -81.5839 210° Southwest 274 315 8,000 -1,461 Descending Jacksonville Center
Sat 11:17:17 PM 30.7697 -81.6183 211° Southwest 256 295 6,700 -1,416 Descending Jacksonville Center
Sat 11:17:51 PM 30.7386 -81.6406 212° Southwest 265 305 5,900 -1,468 Descending Jacksonville Center
Sat 11:18:51 PM 30.6806 -81.6825 212° Southwest 255 293 4,400 -1,350 Descending Jacksonville Center
Sat 11:19:51 PM 30.6244 -81.7194 210° Southwest 250 288 3,200 -1,200 Descending Jacksonville Center

Login

Don't have an account? Register now (free) for customized features, flight alerts, and more!